Time;durP1;ratioP1;P1;durP2;ratioP2;P2;SDS_P1;SDS_P2;PMS_P1;PMS_P2;Temp;Humidity;BMP_temperature;BMP_pressure;BME280_temperature;BME280_humidity;BME280_pressure;Samples;Min_cycle;Max_cycle;Signal;HPM_P1;HPM_P2
2024/01/11 00:01:35;;;;;;;111.82;39.20;;;-4.60;99.90;;;;;;4833063;29;20068;-78
2024/01/11 00:04:05;;;;;;;120.88;41.15;;;-4.50;99.90;;;;;;4836893;29;20057;-78
2024/01/11 00:06:34;;;;;;;118.30;40.92;;;-4.60;99.90;;;;;;4820411;29;20057;-78
2024/01/11 00:09:02;;;;;;;114.20;41.78;;;-4.60;99.90;;;;;;4835265;29;20064;-78
2024/01/11 00:11:32;;;;;;;106.63;36.20;;;-4.60;99.90;;;;;;4863104;29;20053;-77
2024/01/11 00:14:01;;;;;;;121.80;42.05;;;-2.50;99.90;;;;;;4851162;29;20071;-78
2024/01/11 00:16:30;;;;;;;117.47;40.92;;;-4.70;99.90;;;;;;4848907;29;20053;-77
2024/01/11 00:19:00;;;;;;;109.45;38.65;;;-4.70;99.90;;;;;;4853401;29;20045;-77
2024/01/11 00:21:30;;;;;;;112.45;39.28;;;-4.40;99.90;;;;;;4865527;29;20055;-77
2024/01/11 00:23:59;;;;;;;125.50;43.05;;;-3.70;99.90;;;;;;4851866;29;20049;-78
2024/01/11 00:26:28;;;;;;;117.97;42.70;;;-3.10;99.90;;;;;;4868236;29;20041;-78
2024/01/11 00:28:57;;;;;;;119.75;44.88;;;-4.60;99.90;;;;;;4858646;29;20055;-77
2024/01/11 00:31:27;;;;;;;125.97;43.92;;;-5.00;99.90;;;;;;4867970;29;20053;-77
2024/01/11 00:33:56;;;;;;;125.15;47.10;;;-4.00;99.90;;;;;;4855885;29;20061;-77
2024/01/11 00:36:25;;;;;;;136.13;45.47;;;-4.10;99.90;;;;;;4852896;29;20056;-77
2024/01/11 00:38:58;;;;;;;133.25;47.53;;;-5.10;99.90;;;;;;4852589;29;20028;-77
2024/01/11 00:41:27;;;;;;;137.23;47.55;;;-4.60;99.90;;;;;;4878380;29;20053;-77
2024/01/11 00:43:56;;;;;;;139.68;46.42;;;-3.30;99.90;;;;;;4870000;29;20080;-77
2024/01/11 00:46:25;;;;;;;143.15;45.30;;;-3.30;99.90;;;;;;4865196;29;20037;-77
2024/01/11 00:48:56;;;;;;;149.82;47.80;;;-3.10;99.90;;;;;;4853250;29;20068;-77
2024/01/11 00:51:25;;;;;;;134.57;45.63;;;-3.40;99.90;;;;;;4859399;29;20064;-77
2024/01/11 00:53:54;;;;;;;134.00;45.40;;;-4.80;99.90;;;;;;4888883;29;20101;-77
2024/01/11 00:56:24;;;;;;;125.68;46.72;;;-2.20;99.90;;;;;;4866887;29;20033;-77
2024/01/11 00:58:54;;;;;;;126.65;45.25;;;-6.70;99.90;;;;;;4854560;29;20070;-78
2024/01/11 01:01:23;;;;;;;133.00;45.80;;;-3.30;99.90;;;;;;4861158;29;21982;-78
2024/01/11 01:03:51;;;;;;;122.68;43.05;;;-3.40;99.90;;;;;;4852869;29;20070;-77
2024/01/11 01:06:20;;;;;;;127.68;45.65;;;-3.20;99.90;;;;;;4867979;29;20044;-77
2024/01/11 01:08:49;;;;;;;132.27;45.70;;;-3.90;99.90;;;;;;4859754;29;20060;-77
2024/01/11 01:11:18;;;;;;;119.55;45.50;;;-4.40;99.90;;;;;;4865270;29;20045;-79
2024/01/11 01:13:48;;;;;;;136.32;46.33;;;-5.00;99.90;;;;;;4868658;29;20047;-77
2024/01/11 01:16:17;;;;;;;137.30;45.67;;;-4.10;99.90;;;;;;4861068;29;20549;-77
2024/01/11 01:18:46;;;;;;;138.10;48.60;;;-4.90;99.90;;;;;;4874433;29;20039;-77
2024/01/11 01:21:15;;;;;;;124.85;46.88;;;-3.30;99.90;;;;;;4899191;29;20063;-77
2024/01/11 01:23:44;;;;;;;144.73;46.40;;;-5.10;99.90;;;;;;4888871;29;20028;-78
2024/01/11 01:26:16;;;;;;;136.07;46.90;;;-3.40;99.90;;;;;;4878805;29;20053;-77
2024/01/11 02:01:49;;;;;;;110.75;38.45;;;-4.20;99.90;;;;;;5188657;23;20063;-78
2024/01/11 02:04:18;;;;;;;125.75;42.30;;;-3.80;99.90;;;;;;4859741;29;20044;-78
2024/01/11 02:06:48;;;;;;;119.47;43.63;;;-3.50;99.90;;;;;;4867248;29;20054;-78
2024/01/11 02:09:19;;;;;;;128.70;40.88;;;-4.80;99.90;;;;;;4864583;29;20048;-79
2024/01/11 02:11:53;;;;;;;106.25;37.90;;;-4.50;99.90;;;;;;4866548;29;20045;-79
2024/01/11 02:14:21;;;;;;;108.03;36.50;;;-5.60;99.90;;;;;;4877356;29;20055;-78
2024/01/11 02:16:53;;;;;;;96.00;33.30;;;-4.30;99.90;;;;;;4867986;29;20139;-78
2024/01/11 02:19:25;;;;;;;93.53;33.25;;;-3.80;99.90;;;;;;4864149;29;20052;-78
2024/01/11 02:21:56;;;;;;;97.72;32.10;;;-2.60;99.90;;;;;;4876130;29;20045;-79
2024/01/11 02:24:26;;;;;;;93.43;32.30;;;-4.10;99.90;;;;;;4868985;29;20056;-78
2024/01/11 02:27:02;;;;;;;84.45;30.45;;;-5.10;99.90;;;;;;4876699;29;20043;-78
2024/01/11 02:29:32;;;;;;;89.10;31.45;;;-4.20;99.90;;;;;;4864035;29;20040;-78
2024/01/11 02:32:04;;;;;;;86.28;30.63;;;-6.00;99.90;;;;;;4862006;29;20561;-79
2024/01/11 02:34:34;;;;;;;80.28;28.02;;;-4.80;99.90;;;;;;4881286;29;20040;-78
2024/01/11 02:37:03;;;;;;;82.30;27.17;;;-5.10;99.90;;;;;;4879552;29;20060;-78
2024/01/11 02:39:34;;;;;;;77.47;28.63;;;-4.80;99.90;;;;;;4892770;29;20067;-79
2024/01/11 02:42:07;;;;;;;78.40;28.70;;;-4.40;99.90;;;;;;4864929;29;20048;-79
2024/01/11 02:44:36;;;;;;;67.68;27.77;;;-4.70;99.90;;;;;;4884732;29;20080;-78
2024/01/11 02:47:09;;;;;;;71.85;26.08;;;-5.00;99.90;;;;;;4864982;29;20044;-77
2024/01/11 02:49:38;;;;;;;61.35;25.95;;;-6.70;99.90;;;;;;4863300;29;20056;-79
2024/01/11 02:52:06;;;;;;;79.28;27.63;;;-2.70;99.90;;;;;;4863176;29;20050;-78
2024/01/11 02:54:37;;;;;;;67.25;25.83;;;-5.10;99.90;;;;;;4856462;29;20032;-79
2024/01/11 02:57:06;;;;;;;69.32;24.45;;;-5.00;99.90;;;;;;4880927;29;20028;-78
2024/01/11 03:12:20;;;;;;;60.75;23.50;;;-5.50;99.90;;;;;;4881304;29;20077;-87
2024/01/11 03:15:02;;;;;;;54.38;23.77;;;-5.30;99.90;;;;;;4867577;29;20052;-87
2024/01/11 03:17:36;;;;;;;60.03;20.75;;;-4.10;99.90;;;;;;4878428;29;20045;-86
2024/01/11 03:20:07;;;;;;;72.15;25.80;;;-6.00;99.90;;;;;;4864540;29;20049;-87
2024/01/11 03:23:00;;;;;;;67.45;24.20;;;-5.40;99.90;;;;;;4874010;29;20074;-86
2024/01/11 03:26:19;;;;;;;63.03;23.75;;;-5.40;99.90;;;;;;4834104;29;20065;-87
2024/01/11 03:29:46;;;;;;;57.83;23.63;;;-3.60;99.90;;;;;;5004688;23;20160;-88
2024/01/11 03:33:08;;;;;;;65.82;25.50;;;-5.40;99.90;;;;;;4858310;29;20083;-88
2024/01/11 03:40:36;;;;;;;79.32;26.35;;;-4.50;99.90;;;;;;4813106;29;20062;-87
2024/01/11 03:50:14;;;;;;;66.65;25.85;;;-5.00;99.90;;;;;;4750013;30;20082;-87
2024/01/11 04:04:20;;;;;;;67.63;24.73;;;-5.50;99.90;;;;;;4682333;30;20173;-87
2024/01/11 04:21:23;;;;;;;60.20;22.48;;;-5.50;99.90;;;;;;4792578;29;21954;-78
2024/01/11 04:23:51;;;;;;;;;;;-5.70;99.90;;;;;;4770785;29;20069;-78
2024/01/11 04:26:20;;;;;;;56.05;21.60;;;-3.80;99.90;;;;;;4796697;29;20385;-78
2024/01/11 04:28:51;;;;;;;55.90;20.48;;;-4.90;99.90;;;;;;4778729;29;20200;-78
2024/01/11 04:31:20;;;;;;;62.60;22.95;;;-5.60;99.90;;;;;;4778130;29;20065;-78
2024/01/11 04:33:49;;;;;;;63.00;21.98;;;-5.80;99.90;;;;;;4774104;29;20050;-78
2024/01/11 04:36:17;;;;;;;59.17;23.05;;;-4.90;99.90;;;;;;4765391;29;20164;-78
2024/01/11 04:38:46;;;;;;;65.68;24.67;;;-4.40;99.90;;;;;;4779385;29;20133;-78
2024/01/11 04:41:15;;;;;;;58.72;22.50;;;-5.20;99.90;;;;;;4782292;29;20526;-78
2024/01/11 04:43:45;;;;;;;68.30;22.67;;;-5.80;99.90;;;;;;4761911;29;20144;-78
2024/01/11 04:46:17;;;;;;;71.53;27.42;;;-4.10;99.90;;;;;;4769693;29;20061;-78
2024/01/11 04:48:48;;;;;;;;;;;-7.60;99.90;;;;;;4780697;29;20100;-78
2024/01/11 04:51:18;;;;;;;61.00;24.20;;;-5.90;99.90;;;;;;4780410;29;19941;-77
2024/01/11 04:53:47;;;;;;;56.30;22.02;;;-5.90;99.90;;;;;;4765458;29;20050;-79
2024/01/11 04:56:17;;;;;;;62.30;23.92;;;-5.90;99.90;;;;;;4773970;29;20062;-76
2024/01/11 04:58:46;;;;;;;65.80;23.63;;;-5.90;99.90;;;;;;4777988;29;20104;-75
2024/01/11 05:01:15;;;;;;;65.50;27.95;;;-5.90;99.90;;;;;;4773708;29;20152;-78
2024/01/11 05:03:45;;;;;;;76.38;27.63;;;-5.90;99.90;;;;;;4777178;29;20402;-75
2024/01/11 05:06:18;;;;;;;62.25;26.52;;;-5.90;99.90;;;;;;4759977;29;20053;-76
2024/01/11 05:08:47;;;;;;;67.72;25.27;;;-5.90;99.90;;;;;;4781314;29;20542;-77
2024/01/11 05:11:18;;;;;;;69.88;23.42;;;-5.90;99.90;;;;;;4775674;29;20714;-77
2024/01/11 05:13:47;;;;;;;58.47;22.55;;;-5.90;99.90;;;;;;4760640;29;20070;-76
2024/01/11 05:16:20;;;;;;;62.53;24.63;;;-4.20;99.90;;;;;;4779732;29;20109;-77
2024/01/11 05:18:48;;;;;;;65.50;25.95;;;-5.90;99.90;;;;;;4778464;29;20206;-77
2024/01/11 05:21:18;;;;;;;56.28;22.52;;;-5.90;99.90;;;;;;4779517;29;21323;-77
2024/01/11 05:23:47;;;;;;;66.72;29.08;;;-5.90;99.90;;;;;;4777111;29;22283;-76
2024/01/11 05:26:16;;;;;;;86.25;33.28;;;-5.20;99.90;;;;;;4778271;29;20056;-76
2024/01/11 05:28:45;;;;;;;107.05;34.65;;;-6.00;99.90;;;;;;4764738;29;22289;-76
2024/01/11 05:31:15;;;;;;;111.97;39.58;;;-5.90;99.90;;;;;;4768059;29;20488;-75
2024/01/11 05:33:45;;;;;;;101.03;37.60;;;-5.90;99.90;;;;;;4790697;29;20054;-79
2024/01/11 05:36:14;;;;;;;91.78;33.83;;;-6.00;99.90;;;;;;4784792;29;20582;-75
2024/01/11 05:38:44;;;;;;;99.50;34.30;;;-5.90;99.90;;;;;;4811051;29;20121;-75
2024/01/11 05:41:12;;;;;;;105.28;33.50;;;-5.40;99.90;;;;;;4772928;29;20090;-77
2024/01/11 05:43:42;;;;;;;93.03;32.88;;;-6.00;99.90;;;;;;4773685;29;20414;-76
2024/01/11 05:46:11;;;;;;;96.20;31.60;;;-6.00;99.90;;;;;;4760360;29;20106;-76
2024/01/11 05:48:39;;;;;;;92.95;32.97;;;-6.00;99.90;;;;;;4791722;29;20062;-76
2024/01/11 05:51:09;;;;;;;94.82;33.83;;;-6.10;99.90;;;;;;4795240;29;20138;-76
2024/01/11 05:53:37;;;;;;;89.75;34.20;;;-6.10;99.90;;;;;;4791403;29;20037;-75
2024/01/11 05:56:11;;;;;;;89.90;31.25;;;-6.10;99.90;;;;;;4764898;29;20077;-77
2024/01/11 05:58:40;;;;;;;105.22;36.20;;;-6.10;99.90;;;;;;4776316;29;20054;-77
2024/01/11 06:01:09;;;;;;;98.05;33.10;;;-6.00;99.90;;;;;;4792790;29;20137;-77
2024/01/11 06:03:39;;;;;;;88.38;34.05;;;-6.10;99.90;;;;;;4853562;24;20045;-77
2024/01/11 06:06:08;;;;;;;104.88;37.83;;;-5.10;99.90;;;;;;4841721;29;20047;-77
2024/01/11 06:08:38;;;;;;;106.97;38.10;;;-5.70;99.90;;;;;;4867548;29;20053;-77
2024/01/11 06:11:08;;;;;;;104.90;38.85;;;-6.10;99.90;;;;;;4860143;29;20066;-77
2024/01/11 06:13:41;;;;;;;107.57;35.42;;;-3.70;99.90;;;;;;4848862;29;20045;-77
2024/01/11 06:16:12;;;;;;;116.20;42.20;;;-5.30;99.90;;;;;;4863567;29;20044;-77
2024/01/11 06:18:41;;;;;;;114.93;41.35;;;-2.00;99.90;;;;;;4861703;29;20049;-77
2024/01/11 06:21:10;;;;;;;111.35;40.47;;;-5.80;99.90;;;;;;4861904;29;20375;-77
2024/01/11 06:23:39;;;;;;;121.53;41.90;;;-6.00;99.90;;;;;;4864896;29;20044;-77
2024/01/11 06:26:11;;;;;;;122.88;40.20;;;-4.80;99.90;;;;;;4839122;29;20297;-77
2024/01/11 06:28:42;;;;;;;116.57;42.42;;;-3.80;99.90;;;;;;4867402;29;20072;-77
2024/01/11 06:31:11;;;;;;;110.65;37.45;;;-4.30;99.90;;;;;;4863691;29;20112;-80
2024/01/11 06:53:11;;;;;;;81.82;34.83;;;-6.10;99.90;;;;;;4826842;29;20073;-88
2024/01/11 06:55:58;;;;;;;102.57;39.20;;;-5.00;99.90;;;;;;4786072;29;20046;-86
2024/01/11 07:01:31;;;;;;;86.30;34.20;;;-5.10;99.90;;;;;;4758124;30;20063;-87
2024/01/11 07:07:06;;;;;;;88.85;35.90;;;-6.00;99.90;;;;;;4750210;30;20058;-86
2024/01/11 07:09:41;;;;;;;93.15;37.45;;;-5.90;99.90;;;;;;4746595;30;20316;-86
2024/01/11 07:12:15;;;;;;;89.43;36.90;;;-5.80;99.90;;;;;;4772080;29;20065;-87
2024/01/11 07:14:53;;;;;;;79.10;33.22;;;-5.70;99.90;;;;;;4788688;29;20066;-86
2024/01/11 07:17:29;;;;;;;86.53;34.03;;;-5.00;99.90;;;;;;4761025;30;20473;-87
2024/01/11 07:19:58;;;;;;;89.03;36.80;;;-5.50;99.90;;;;;;4764982;29;20051;-86
2024/01/11 07:22:30;;;;;;;96.60;38.72;;;-5.80;99.90;;;;;;4768501;30;20128;-86
2024/01/11 07:25:07;;;;;;;133.77;49.92;;;-5.60;99.90;;;;;;4782533;29;20051;-85
2024/01/11 07:27:40;;;;;;;122.75;39.53;;;-5.40;99.90;;;;;;4809288;29;20121;-87
2024/01/11 07:30:13;;;;;;;94.35;33.97;;;-5.40;99.90;;;;;;4806056;29;20411;-86
2024/01/11 07:32:47;;;;;;;77.05;31.48;;;-5.40;99.90;;;;;;4847086;29;20825;-86
2024/01/11 07:35:17;;;;;;;83.63;32.75;;;-5.30;99.90;;;;;;4851030;29;20152;-85
2024/01/11 07:37:47;;;;;;;76.55;30.33;;;-5.20;99.90;;;;;;4831740;29;20041;-87
2024/01/11 07:40:35;;;;;;;92.65;35.45;;;-4.20;99.90;;;;;;4854987;29;20049;-86
2024/01/11 07:43:15;;;;;;;102.25;41.50;;;-4.30;99.90;;;;;;4857233;29;20852;-86
2024/01/11 07:45:45;;;;;;;93.47;36.53;;;-5.20;99.90;;;;;;4845454;29;20057;-87
2024/01/11 07:51:28;;;;;;;110.00;39.78;;;-5.20;99.90;;;;;;4808260;29;20153;-77
2024/01/11 07:53:56;;;;;;;91.82;36.63;;;-5.00;99.90;;;;;;4791523;29;20144;-78
2024/01/11 07:56:26;;;;;;;84.07;33.15;;;-4.80;99.90;;;;;;4792604;29;20309;-78
2024/01/11 07:58:55;;;;;;;70.38;28.83;;;-4.90;99.90;;;;;;4811435;29;20050;-78
2024/01/11 08:01:23;;;;;;;71.18;29.08;;;-4.80;99.90;;;;;;4776281;29;22911;-77
2024/01/11 08:03:52;;;;;;;68.05;25.80;;;-4.70;99.90;;;;;;4782926;29;20775;-78
2024/01/11 08:06:21;;;;;;;74.50;24.52;;;-4.70;99.90;;;;;;4793884;29;20794;-78
2024/01/11 08:08:51;;;;;;;67.93;25.48;;;-4.60;99.90;;;;;;4792056;29;20080;-78
2024/01/11 08:11:21;;;;;;;76.65;28.10;;;-4.60;99.90;;;;;;4791666;29;23232;-78
2024/01/11 08:13:53;;;;;;;80.05;27.02;;;-4.40;99.90;;;;;;4787656;29;20057;-77
2024/01/11 08:16:22;;;;;;;62.42;25.63;;;-4.40;99.90;;;;;;4789866;29;20053;-77
2024/01/11 08:18:51;;;;;;;65.55;24.65;;;-4.40;99.90;;;;;;4796042;29;20053;-78
2024/01/11 08:21:20;;;;;;;72.13;25.70;;;-4.30;99.90;;;;;;4808886;29;20050;-80
2024/01/11 08:23:54;;;;;;;70.57;25.77;;;-4.20;99.90;;;;;;4831630;29;20287;-79
2024/01/11 08:26:29;;;;;;;74.18;27.48;;;-4.70;99.90;;;;;;4830125;29;20042;-79
2024/01/11 08:29:00;;;;;;;81.22;31.92;;;-3.70;99.90;;;;;;4827561;29;22830;-79
2024/01/11 08:31:29;;;;;;;75.53;29.58;;;-2.50;99.90;;;;;;4840592;29;20037;-79
2024/01/11 08:33:58;;;;;;;73.35;28.33;;;-2.20;99.90;;;;;;4830542;29;20056;-79
2024/01/11 08:36:34;;;;;;;80.35;27.58;;;-3.50;99.90;;;;;;4830128;29;20057;-79
2024/01/11 08:39:05;;;;;;;56.53;27.27;;;-3.40;99.90;;;;;;4830871;29;20049;-79
2024/01/11 08:41:35;;;;;;;60.38;26.17;;;-3.50;99.90;;;;;;4814842;29;20049;-79
2024/01/11 08:44:06;;;;;;;85.15;30.10;;;-3.60;99.90;;;;;;4823683;29;20081;-78
2024/01/11 08:46:35;;;;;;;75.13;26.08;;;-2.10;99.90;;;;;;4834503;29;20065;-79
2024/01/11 08:49:04;;;;;;;65.93;26.30;;;-1.30;99.90;;;;;;4813133;29;20038;-79
2024/01/11 08:51:33;;;;;;;79.90;27.33;;;-3.10;99.90;;;;;;4833635;29;20049;-80
2024/01/11 08:54:04;;;;;;;81.95;27.63;;;-2.90;99.90;;;;;;4833316;29;20043;-79
2024/01/11 08:56:33;;;;;;;86.63;32.15;;;-3.80;99.90;;;;;;4856319;29;20065;-79
2024/01/11 08:59:01;;;;;;;70.00;29.33;;;-2.20;99.90;;;;;;4852034;29;20048;-79
2024/01/11 09:01:35;;;;;;;77.03;29.73;;;-2.90;99.90;;;;;;4848459;29;20033;-80
2024/01/11 09:04:04;;;;;;;72.53;25.67;;;-2.60;99.90;;;;;;4829377;29;20045;-79
2024/01/11 09:06:35;;;;;;;89.95;30.17;;;-2.10;99.90;;;;;;4845722;29;20159;-79
2024/01/11 09:09:09;;;;;;;77.20;27.77;;;-2.00;99.90;;;;;;4834203;29;20038;-79
2024/01/11 09:11:38;;;;;;;106.50;40.17;;;-2.50;99.90;;;;;;4872587;29;20164;-79
2024/01/11 09:14:10;;;;;;;85.45;29.17;;;-1.30;99.90;;;;;;4826834;29;20053;-79
2024/01/11 09:16:41;;;;;;;53.42;22.60;;;-1.80;99.90;;;;;;4848688;29;20048;-81
2024/01/11 09:19:10;;;;;;;76.63;24.40;;;-1.90;99.90;;;;;;4852020;29;20114;-79
2024/01/11 09:21:39;;;;;;;88.47;35.47;;;-2.50;99.90;;;;;;4822932;29;20060;-80
2024/01/11 09:24:08;;;;;;;76.22;28.20;;;-1.70;99.90;;;;;;4824031;29;20061;-80
2024/01/11 09:26:37;;;;;;;63.58;25.88;;;-1.60;99.90;;;;;;4822323;29;20061;-80
2024/01/11 09:29:06;;;;;;;47.25;17.58;;;-2.50;99.90;;;;;;4827751;29;22216;-79
2024/01/11 09:31:35;;;;;;;35.13;14.45;;;-1.40;99.90;;;;;;4843594;29;20048;-78
2024/01/11 09:34:08;;;;;;;30.25;10.75;;;-1.10;99.90;;;;;;4877591;29;20058;-78
2024/01/11 09:36:38;;;;;;;33.05;12.55;;;-0.30;99.90;;;;;;4849838;29;20033;-78
2024/01/11 09:39:08;;;;;;;34.75;12.55;;;-1.10;99.90;;;;;;4871459;29;20060;-78
2024/01/11 09:41:39;;;;;;;35.22;16.48;;;-1.00;99.90;;;;;;4835096;29;20049;-78
2024/01/11 09:44:08;;;;;;;26.38;10.52;;;-0.10;99.90;;;;;;4850118;29;20121;-79
2024/01/11 09:46:38;;;;;;;20.25;8.82;;;-0.90;99.90;;;;;;4859912;29;20867;-78
2024/01/11 09:49:13;;;;;;;28.05;11.27;;;-0.70;99.90;;;;;;4848575;29;20045;-78
2024/01/11 09:51:44;;;;;;;28.23;11.95;;;-0.70;99.90;;;;;;4827645;29;20061;-78
2024/01/11 09:54:14;;;;;;;27.52;12.07;;;-0.60;99.90;;;;;;4834935;29;20049;-78
2024/01/11 09:56:44;;;;;;;24.33;8.82;;;-0.40;99.90;;;;;;4822974;29;20089;-78
2024/01/11 09:59:13;;;;;;;25.08;8.63;;;-0.50;99.90;;;;;;4846991;29;20054;-78
2024/01/11 10:01:43;;;;;;;24.42;10.82;;;-0.50;99.90;;;;;;4821750;29;23602;-78
2024/01/11 10:04:15;;;;;;;17.83;6.95;;;-0.30;99.90;;;;;;4820826;29;20084;-78
2024/01/11 10:06:50;;;;;;;23.58;11.00;;;-0.30;99.90;;;;;;4824208;29;20056;-78
2024/01/11 10:09:19;;;;;;;22.67;8.93;;;0.00;99.90;;;;;;4844401;29;20040;-78
2024/01/11 10:11:49;;;;;;;24.52;10.02;;;-0.20;99.90;;;;;;4824459;29;20066;-78
2024/01/11 10:14:17;;;;;;;25.08;10.30;;;-0.10;99.70;;;;;;4839483;29;20048;-78
2024/01/11 10:16:46;;;;;;;25.05;10.15;;;-0.20;99.70;;;;;;4827348;29;20526;-78
2024/01/11 10:19:18;;;;;;;19.40;8.43;;;0.50;99.00;;;;;;4838059;29;20058;-78
2024/01/11 10:21:51;;;;;;;26.15;10.77;;;-0.20;98.50;;;;;;4822594;29;20040;-78
2024/01/11 10:24:20;;;;;;;23.85;9.40;;;-0.10;98.60;;;;;;4857016;29;20041;-78
2024/01/11 10:26:50;;;;;;;21.27;8.88;;;-0.10;97.90;;;;;;4837469;29;20037;-78
2024/01/11 10:29:19;;;;;;;26.85;9.50;;;-0.10;98.00;;;;;;4835806;29;20073;-79
2024/01/11 10:31:48;;;;;;;21.77;8.60;;;0.00;98.70;;;;;;4838363;29;20045;-78
2024/01/11 10:34:18;;;;;;;22.10;8.65;;;0.10;97.10;;;;;;4823021;29;20690;-78
2024/01/11 10:36:47;;;;;;;20.05;8.55;;;1.20;96.30;;;;;;4837621;29;20160;-78
2024/01/11 10:39:17;;;;;;;26.80;11.38;;;0.20;96.50;;;;;;4843065;29;20046;-79
2024/01/11 10:41:51;;;;;;;21.60;8.63;;;0.30;97.10;;;;;;4842829;29;21925;-78
2024/01/11 10:44:21;;;;;;;24.13;10.10;;;0.30;97.10;;;;;;4855598;29;20069;-79
2024/01/11 10:46:51;;;;;;;22.63;9.52;;;0.30;97.40;;;;;;4869295;29;20046;-78
2024/01/11 10:49:24;;;;;;;21.05;8.80;;;0.40;97.50;;;;;;4876452;29;21256;-78
2024/01/11 10:52:01;;;;;;;22.50;10.02;;;0.40;97.10;;;;;;4846203;29;20041;-78
2024/01/11 10:54:30;;;;;;;23.95;8.73;;;0.50;95.70;;;;;;4860942;29;20045;-78
2024/01/11 10:57:00;;;;;;;24.00;9.60;;;0.50;96.00;;;;;;4855396;29;20054;-79
2024/01/11 10:59:33;;;;;;;27.52;10.73;;;0.90;96.90;;;;;;4845027;29;20196;-78
2024/01/11 11:02:11;;;;;;;23.13;10.40;;;0.60;96.70;;;;;;4852938;29;20052;-78
2024/01/11 11:04:44;;;;;;;23.45;9.82;;;1.10;96.60;;;;;;4849396;29;20029;-77
2024/01/11 11:07:13;;;;;;;23.55;8.98;;;0.80;96.20;;;;;;4846997;29;20053;-78
2024/01/11 11:09:45;;;;;;;40.92;16.30;;;1.10;95.70;;;;;;4845137;29;20033;-78
2024/01/11 11:12:15;;;;;;;23.10;10.85;;;0.70;95.70;;;;;;4858916;29;20049;-78
2024/01/11 11:14:44;;;;;;;19.35;8.23;;;2.40;95.90;;;;;;4847202;29;20045;-79
2024/01/11 11:17:16;;;;;;;23.80;12.02;;;0.80;95.10;;;;;;4840217;29;20659;-78
2024/01/11 11:19:46;;;;;;;27.17;12.75;;;1.00;94.70;;;;;;4847312;29;20068;-78
2024/01/11 11:22:16;;;;;;;29.70;12.27;;;0.90;95.80;;;;;;4838489;29;20150;-79
2024/01/11 11:24:45;;;;;;;24.83;10.40;;;0.90;95.60;;;;;;4856258;29;20063;-78
2024/01/11 11:27:15;;;;;;;26.42;9.85;;;1.40;96.00;;;;;;4849197;29;20044;-79
2024/01/11 11:29:49;;;;;;;20.45;9.13;;;1.00;95.90;;;;;;4847026;29;20105;-78
2024/01/11 11:32:18;;;;;;;27.70;12.55;;;0.90;95.80;;;;;;4854088;29;20041;-79
2024/01/11 11:34:49;;;;;;;27.45;11.02;;;0.90;95.70;;;;;;4842685;29;20076;-78
2024/01/11 11:37:24;;;;;;;33.50;14.35;;;1.00;96.10;;;;;;4847258;29;20054;-78
2024/01/11 11:39:53;;;;;;;27.10;11.43;;;1.00;95.60;;;;;;4860779;29;20041;-79
2024/01/11 11:42:24;;;;;;;28.15;11.40;;;1.60;95.60;;;;;;4888061;29;20041;-80
2024/01/11 11:44:57;;;;;;;23.85;9.82;;;1.00;95.40;;;;;;4850668;29;20168;-80
2024/01/11 11:47:37;;;;;;;24.00;11.68;;;1.00;95.30;;;;;;4862050;29;20077;-79
2024/01/11 11:50:09;;;;;;;23.77;11.32;;;1.30;95.20;;;;;;4859159;29;20064;-79
2024/01/11 11:52:41;;;;;;;24.58;11.95;;;1.00;95.20;;;;;;4831724;29;20148;-78
2024/01/11 11:55:10;;;;;;;22.50;9.73;;;1.10;94.80;;;;;;4859923;29;20045;-79
2024/01/11 11:57:39;;;;;;;22.25;8.93;;;1.20;94.70;;;;;;4851009;29;20065;-79
2024/01/11 12:00:11;;;;;;;41.03;15.55;;;1.30;94.10;;;;;;4853339;29;20029;-77
2024/01/11 12:02:40;;;;;;;20.95;10.38;;;1.20;93.60;;;;;;4864203;29;20048;-79
2024/01/11 12:05:11;;;;;;;20.58;8.88;;;1.20;93.50;;;;;;4834713;29;20167;-79
2024/01/11 12:07:40;;;;;;;23.58;11.00;;;1.00;93.50;;;;;;4856563;29;22078;-78
2024/01/11 12:10:09;;;;;;;32.67;12.13;;;1.40;93.70;;;;;;4849512;29;20049;-79
2024/01/11 12:12:39;;;;;;;34.13;15.07;;;1.30;93.70;;;;;;4836077;29;20037;-78
2024/01/11 12:15:09;;;;;;;29.77;12.07;;;1.30;93.70;;;;;;4835599;29;20036;-81
2024/01/11 12:17:42;;;;;;;28.95;12.70;;;1.20;93.50;;;;;;4861805;29;20040;-78
2024/01/11 12:20:14;;;;;;;34.33;13.98;;;0.50;93.50;;;;;;4847805;29;20045;-78
2024/01/11 12:22:43;;;;;;;22.40;10.23;;;1.30;93.40;;;;;;4857306;29;20051;-78
2024/01/11 12:25:12;;;;;;;24.13;9.20;;;1.40;92.90;;;;;;4836280;29;20047;-79
2024/01/11 12:27:41;;;;;;;28.70;10.32;;;1.30;93.40;;;;;;4845652;29;21876;-79
2024/01/11 12:30:14;;;;;;;26.38;11.35;;;1.40;93.10;;;;;;4850586;29;21944;-79
2024/01/11 12:32:43;;;;;;;;;;;1.20;92.60;;;;;;4845366;29;20038;-79
2024/01/11 12:35:13;;;;;;;23.00;10.68;;;2.10;93.20;;;;;;4867139;29;20008;-78
2024/01/11 12:37:42;;;;;;;20.65;9.32;;;1.40;93.30;;;;;;4833877;29;20057;-79
2024/01/11 12:40:14;;;;;;;20.27;8.32;;;1.30;93.40;;;;;;4832807;29;20040;-79
2024/01/11 12:42:44;;;;;;;18.65;8.18;;;2.10;93.10;;;;;;4863502;29;20037;-79
2024/01/11 12:45:14;;;;;;;21.83;8.63;;;1.40;92.80;;;;;;4845493;29;20056;-79
2024/01/11 12:47:43;;;;;;;17.85;6.95;;;1.30;91.70;;;;;;4858732;29;20033;-79
2024/01/11 12:50:14;;;;;;;18.25;7.65;;;1.90;92.00;;;;;;4841176;29;20065;-79
2024/01/11 12:52:43;;;;;;;21.10;6.82;;;1.50;91.70;;;;;;4865981;29;20029;-78
2024/01/11 12:55:20;;;;;;;21.15;8.15;;;0.30;91.00;;;;;;4860027;29;20046;-79
2024/01/11 12:57:49;;;;;;;23.27;9.15;;;1.60;91.30;;;;;;4859741;29;20049;-79
2024/01/11 13:00:19;;;;;;;21.80;9.98;;;2.70;92.10;;;;;;4853804;29;20568;-79
2024/01/11 13:02:50;;;;;;;23.90;9.32;;;2.20;92.00;;;;;;4844298;29;20056;-80
2024/01/11 13:05:21;;;;;;;26.55;11.20;;;1.50;92.00;;;;;;4834632;29;20055;-80
2024/01/11 13:07:50;;;;;;;38.10;13.55;;;1.80;92.40;;;;;;4846402;29;20061;-79
2024/01/11 13:10:19;;;;;;;39.33;15.18;;;1.60;93.20;;;;;;4831787;29;20328;-79
2024/01/11 13:12:49;;;;;;;49.22;18.33;;;3.40;93.40;;;;;;4835096;29;20056;-80
2024/01/11 13:15:28;;;;;;;34.95;13.68;;;1.60;93.10;;;;;;4829715;29;20140;-79
2024/01/11 13:17:58;;;;;;;43.28;16.67;;;1.40;92.90;;;;;;4867343;29;20093;-79
2024/01/11 13:20:29;;;;;;;57.22;27.92;;;1.70;93.40;;;;;;4845156;29;20733;-79
2024/01/11 13:23:14;;;;;;;58.28;34.78;;;1.40;93.60;;;;;;4848933;29;20052;-79
2024/01/11 13:25:45;;;;;;;28.23;11.68;;;1.10;94.10;;;;;;4850497;29;20053;-79
2024/01/11 13:28:15;;;;;;;26.75;14.45;;;1.40;94.40;;;;;;4853119;29;20136;-80
2024/01/11 13:30:45;;;;;;;145.98;62.75;;;2.00;94.80;;;;;;4847563;29;20041;-79
2024/01/11 13:33:16;;;;;;;55.78;24.88;;;1.40;95.00;;;;;;4836114;29;22089;-80
2024/01/11 13:35:47;;;;;;;36.05;18.65;;;3.00;95.30;;;;;;4856146;29;20045;-79
2024/01/11 13:38:19;;;;;;;32.78;18.35;;;1.40;94.70;;;;;;4855947;29;20141;-80
2024/01/11 13:40:53;;;;;;;27.63;13.80;;;1.40;94.60;;;;;;4834830;29;20112;-79
2024/01/11 13:43:22;;;;;;;33.67;19.77;;;1.20;94.60;;;;;;4847439;29;20037;-80
2024/01/11 13:45:51;;;;;;;35.47;18.42;;;1.50;94.80;;;;;;4829915;29;20038;-80
2024/01/11 13:48:20;;;;;;;29.52;13.55;;;-0.10;94.40;;;;;;4840174;29;20037;-79
2024/01/11 13:50:50;;;;;;;25.73;10.80;;;1.40;94.80;;;;;;4841637;29;20064;-79
2024/01/11 13:53:19;;;;;;;31.85;12.07;;;1.50;94.60;;;;;;4833249;29;20068;-79
2024/01/11 13:55:49;;;;;;;29.77;14.18;;;1.40;94.50;;;;;;4841234;29;20160;-78
2024/01/11 13:58:18;;;;;;;27.80;13.13;;;1.40;94.70;;;;;;4829329;29;20064;-80
2024/01/11 14:00:47;;;;;;;27.10;12.18;;;1.70;95.00;;;;;;4844575;29;20053;-79
2024/01/11 14:03:17;;;;;;;24.80;11.57;;;1.40;94.70;;;;;;4825367;29;20041;-79
2024/01/11 14:05:47;;;;;;;30.10;13.18;;;1.20;95.00;;;;;;4856994;29;20029;-78
2024/01/11 14:08:18;;;;;;;28.30;12.13;;;1.00;95.10;;;;;;4836546;29;20161;-79
2024/01/11 14:10:47;;;;;;;35.88;14.40;;;1.60;95.20;;;;;;4837885;29;20144;-81
2024/01/11 14:13:16;;;;;;;26.83;11.70;;;2.10;95.50;;;;;;4828179;29;20053;-79
2024/01/11 14:15:47;;;;;;;31.70;11.68;;;1.90;95.40;;;;;;4833550;29;20081;-78
2024/01/11 14:18:16;;;;;;;26.60;11.00;;;1.00;95.00;;;;;;4822557;29;20105;-78
2024/01/11 14:20:45;;;;;;;26.73;11.13;;;0.90;95.00;;;;;;4822124;29;20057;-78
2024/01/11 14:23:14;;;;;;;32.95;12.63;;;1.00;95.00;;;;;;4805320;29;20709;-79
2024/01/11 14:25:45;;;;;;;28.35;11.43;;;0.90;95.10;;;;;;4847895;29;20060;-78
2024/01/11 14:28:13;;;;;;;23.85;10.13;;;0.80;95.50;;;;;;4819232;29;20737;-78
2024/01/11 14:30:44;;;;;;;26.33;11.63;;;0.80;95.40;;;;;;4800155;29;20088;-78
2024/01/11 14:33:13;;;;;;;21.02;9.80;;;0.80;95.50;;;;;;4814025;29;20140;-78
2024/01/11 14:35:41;;;;;;;22.48;9.57;;;0.70;95.40;;;;;;4829388;29;20624;-77
2024/01/11 14:38:11;;;;;;;23.65;10.70;;;0.60;95.50;;;;;;4815287;29;20159;-78
2024/01/11 14:40:41;;;;;;;31.65;12.25;;;0.60;95.50;;;;;;4816013;29;20751;-77
2024/01/11 14:43:11;;;;;;;27.55;9.50;;;0.60;95.50;;;;;;4818974;29;20060;-78